sensor_id;sensor_type;location;lat;lon;timestamp;pressure;altitude;pressure_sealevel;temperature;humidity
55070;BME280;40967;52.070;8.596;2023-02-28T00:02:19;102026.22;;;-1.26;78.20
55070;BME280;40967;52.070;8.596;2023-02-28T00:04:44;102016.88;;;-1.30;78.71
55070;BME280;40967;52.070;8.596;2023-02-28T00:07:11;102023.53;;;-1.34;78.84
55070;BME280;40967;52.070;8.596;2023-02-28T00:09:36;102009.84;;;-1.39;79.39
55070;BME280;40967;52.070;8.596;2023-02-28T00:12:02;102009.44;;;-1.44;80.28
55070;BME280;40967;52.070;8.596;2023-02-28T00:14:35;102011.59;;;-1.48;80.35
55070;BME280;40967;52.070;8.596;2023-02-28T00:17:00;102012.94;;;-1.44;80.46
55070;BME280;40967;52.070;8.596;2023-02-28T00:19:26;102012.50;;;-1.39;80.68
55070;BME280;40967;52.070;8.596;2023-02-28T00:21:51;102021.16;;;-1.37;80.71
55070;BME280;40967;52.070;8.596;2023-02-28T00:24:17;101993.28;;;-1.51;80.68
55070;BME280;40967;52.070;8.596;2023-02-28T00:26:42;102009.84;;;-1.39;80.63
55070;BME280;40967;52.070;8.596;2023-02-28T00:29:07;102017.16;;;-1.41;80.96
55070;BME280;40967;52.070;8.596;2023-02-28T00:31:33;102018.19;;;-1.34;80.78
55070;BME280;40967;52.070;8.596;2023-02-28T00:33:58;101997.31;;;-1.47;80.71
55070;BME280;40967;52.070;8.596;2023-02-28T00:36:24;102027.38;;;-1.29;80.61
55070;BME280;40967;52.070;8.596;2023-02-28T00:38:49;102030.69;;;-1.27;80.55
55070;BME280;40967;52.070;8.596;2023-02-28T00:41:14;102026.22;;;-1.26;80.28
55070;BME280;40967;52.070;8.596;2023-02-28T00:43:40;102024.25;;;-1.24;80.25
55070;BME280;40967;52.070;8.596;2023-02-28T00:46:06;102017.56;;;-1.28;80.08
55070;BME280;40967;52.070;8.596;2023-02-28T00:48:32;102017.56;;;-1.28;79.99
55070;BME280;40967;52.070;8.596;2023-02-28T00:50:58;102020.56;;;-1.23;80.14
55070;BME280;40967;52.070;8.596;2023-02-28T00:53:23;102004.56;;;-1.31;80.25
55070;BME280;40967;52.070;8.596;2023-02-28T00:55:49;102026.22;;;-1.26;80.25
55070;BME280;40967;52.070;8.596;2023-02-28T00:58:15;102027.75;;;-1.24;80.46
55070;BME280;40967;52.070;8.596;2023-02-28T01:00:40;102028.22;;;-1.28;80.39
55070;BME280;40967;52.070;8.596;2023-02-28T01:03:05;102032.25;;;-1.24;80.58
55070;BME280;40967;52.070;8.596;2023-02-28T01:05:31;102028.72;;;-1.25;80.73
55070;BME280;40967;52.070;8.596;2023-02-28T01:07:56;102021.75;;;-1.26;80.84
55070;BME280;40967;52.070;8.596;2023-02-28T01:10:22;102026.53;;;-1.29;81.04
55070;BME280;40967;52.070;8.596;2023-02-28T01:12:47;102030.19;;;-1.30;80.58
55070;BME280;40967;52.070;8.596;2023-02-28T01:15:12;102026.19;;;-1.34;80.78
55070;BME280;40967;52.070;8.596;2023-02-28T01:17:38;102021.31;;;-1.39;80.80
55070;BME280;40967;52.070;8.596;2023-02-28T01:20:04;102024.97;;;-1.40;80.81
55070;BME280;40967;52.070;8.596;2023-02-28T01:22:29;102040.09;;;-1.40;80.96
55070;BME280;40967;52.070;8.596;2023-02-28T01:24:54;102018.03;;;-1.58;81.30
55070;BME280;40967;52.070;8.596;2023-02-28T01:27:20;102030.22;;;-1.48;81.00
55070;BME280;40967;52.070;8.596;2023-02-28T01:29:45;102016.97;;;-1.65;81.40
55070;BME280;40967;52.070;8.596;2023-02-28T01:32:11;102021.28;;;-1.64;81.67
55070;BME280;40967;52.070;8.596;2023-02-28T01:34:36;102027.28;;;-1.62;81.77
55070;BME280;40967;52.070;8.596;2023-02-28T01:37:02;102009.06;;;-1.75;81.88
55070;BME280;40967;52.070;8.596;2023-02-28T01:39:28;102030.41;;;-1.67;81.59
55070;BME280;40967;52.070;8.596;2023-02-28T01:41:54;102027.19;;;-1.70;81.90
55070;BME280;40967;52.070;8.596;2023-02-28T01:47:23;102024.16;;;-1.75;81.63
55070;BME280;40967;52.070;8.596;2023-02-28T01:49:51;102025.13;;;-1.84;81.50
55070;BME280;40967;52.070;8.596;2023-02-28T01:52:17;102016.44;;;-1.86;81.50
55070;BME280;40967;52.070;8.596;2023-02-28T01:54:51;102013.41;;;-1.91;81.29
55070;BME280;40967;52.070;8.596;2023-02-28T01:57:20;102022.34;;;-1.92;81.14
55070;BME280;40967;52.070;8.596;2023-02-28T01:59:53;102025.16;;;-1.94;81.39
55070;BME280;40967;52.070;8.596;2023-02-28T02:02:21;102021.44;;;-2.01;81.66
55070;BME280;40967;52.070;8.596;2023-02-28T02:04:58;102016.50;;;-2.13;81.82
55070;BME280;40967;52.070;8.596;2023-02-28T02:07:24;102022.81;;;-2.14;82.93
55070;BME280;40967;52.070;8.596;2023-02-28T02:10:00;102033.06;;;-2.19;83.36
55070;BME280;40967;52.070;8.596;2023-02-28T02:15:13;102026.84;;;-2.28;83.61
55070;BME280;40967;52.070;8.596;2023-02-28T02:17:44;102021.25;;;-2.35;83.53
55070;BME280;40967;52.070;8.596;2023-02-28T02:25:58;102026.56;;;-2.35;84.35
55070;BME280;40967;52.070;8.596;2023-02-28T02:28:46;102025.59;;;-2.34;84.07
55070;BME280;40967;52.070;8.596;2023-02-28T02:31:36;102019.44;;;-2.34;84.21
55070;BME280;40967;52.070;8.596;2023-02-28T02:37:14;102013.16;;;-2.33;84.11
55070;BME280;40967;52.070;8.596;2023-02-28T02:42:23;102007.47;;;-2.38;85.17
55070;BME280;40967;52.070;8.596;2023-02-28T02:45:00;101997.25;;;-2.43;85.48
55070;BME280;40967;52.070;8.596;2023-02-28T02:47:29;102010.13;;;-2.38;85.45
55070;BME280;40967;52.070;8.596;2023-02-28T02:49:58;102011.25;;;-2.41;85.21
55070;BME280;40967;52.070;8.596;2023-02-28T02:52:34;102013.19;;;-2.43;85.68
55070;BME280;40967;52.070;8.596;2023-02-28T02:55:02;102018.66;;;-2.44;85.64
55070;BME280;40967;52.070;8.596;2023-02-28T02:57:45;102030.16;;;-2.44;85.92
55070;BME280;40967;52.070;8.596;2023-02-28T03:00:13;102025.09;;;-2.47;85.75
55070;BME280;40967;52.070;8.596;2023-02-28T03:02:41;102017.44;;;-2.50;85.43
55070;BME280;40967;52.070;8.596;2023-02-28T03:05:21;102026.09;;;-2.48;85.32
55070;BME280;40967;52.070;8.596;2023-02-28T03:07:48;102012.72;;;-2.56;85.13
55070;BME280;40967;52.070;8.596;2023-02-28T03:10:39;102023.91;;;-2.52;85.20
55070;BME280;40967;52.070;8.596;2023-02-28T03:24:24;102017.25;;;-2.66;84.64
55070;BME280;40967;52.070;8.596;2023-02-28T03:26:56;102023.53;;;-2.67;84.38
55070;BME280;40967;52.070;8.596;2023-02-28T03:29:34;102015.19;;;-2.72;83.97
55070;BME280;40967;52.070;8.596;2023-02-28T03:32:08;102017.31;;;-2.75;84.13
55070;BME280;40967;52.070;8.596;2023-02-28T03:34:50;102012.56;;;-2.81;84.20
55070;BME280;40967;52.070;8.596;2023-02-28T03:37:22;102017.59;;;-2.78;84.04
55070;BME280;40967;52.070;8.596;2023-02-28T03:40:01;102018.41;;;-2.78;83.78
55070;BME280;40967;52.070;8.596;2023-02-28T03:42:34;102011.75;;;-2.82;83.62
55070;BME280;40967;52.070;8.596;2023-02-28T03:45:04;102019.56;;;-2.80;83.39
55070;BME280;40967;52.070;8.596;2023-02-28T03:47:40;102017.88;;;-2.81;83.13
55070;BME280;40967;52.070;8.596;2023-02-28T03:50:16;101968.28;;;-3.17;83.02
55070;BME280;40967;52.070;8.596;2023-02-28T03:52:47;102017.78;;;-2.89;83.00
55070;BME280;40967;52.070;8.596;2023-02-28T03:55:16;102017.38;;;-2.94;82.97
55070;BME280;40967;52.070;8.596;2023-02-28T04:00:27;102021.44;;;-3.00;82.65
55070;BME280;40967;52.070;8.596;2023-02-28T04:02:54;102013.00;;;-3.13;82.84
55070;BME280;40967;52.070;8.596;2023-02-28T04:05:21;102025.13;;;-3.10;83.38
55070;BME280;40967;52.070;8.596;2023-02-28T04:07:47;102019.56;;;-3.17;83.37
55070;BME280;40967;52.070;8.596;2023-02-28T04:10:14;102010.94;;;-3.28;83.23
55070;BME280;40967;52.070;8.596;2023-02-28T04:12:40;102026.13;;;-3.21;83.42
55070;BME280;40967;52.070;8.596;2023-02-28T04:15:06;102007.59;;;-3.30;83.16
55070;BME280;40967;52.070;8.596;2023-02-28T04:17:32;102022.38;;;-3.28;83.28
55070;BME280;40967;52.070;8.596;2023-02-28T04:19:57;102009.56;;;-3.42;83.59
55070;BME280;40967;52.070;8.596;2023-02-28T04:22:23;102024.22;;;-3.38;83.91
55070;BME280;40967;52.070;8.596;2023-02-28T04:24:51;102007.09;;;-3.53;84.30
55070;BME280;40967;52.070;8.596;2023-02-28T04:27:18;102013.09;;;-3.51;84.93
55070;BME280;40967;52.070;8.596;2023-02-28T04:29:44;102028.31;;;-3.53;84.79
55070;BME280;40967;52.070;8.596;2023-02-28T04:32:10;102012.94;;;-3.59;84.86
55070;BME280;40967;52.070;8.596;2023-02-28T04:34:35;102020.06;;;-3.60;84.75
55070;BME280;40967;52.070;8.596;2023-02-28T04:37:01;102014.06;;;-3.62;84.33
55070;BME280;40967;52.070;8.596;2023-02-28T04:39:26;102015.19;;;-3.64;84.27
55070;BME280;40967;52.070;8.596;2023-02-28T04:41:52;102018.94;;;-3.57;83.70
55070;BME280;40967;52.070;8.596;2023-02-28T04:44:17;102002.50;;;-3.70;84.50
55070;BME280;40967;52.070;8.596;2023-02-28T04:46:43;102024.94;;;-3.65;84.53
55070;BME280;40967;52.070;8.596;2023-02-28T04:49:11;102023.44;;;-3.67;84.76
55070;BME280;40967;52.070;8.596;2023-02-28T04:51:37;102026.22;;;-3.69;85.20
55070;BME280;40967;52.070;8.596;2023-02-28T04:54:04;102015.22;;;-3.74;84.96
55070;BME280;40967;52.070;8.596;2023-02-28T04:56:29;102020.63;;;-3.75;85.28
55070;BME280;40967;52.070;8.596;2023-02-28T04:58:55;102023.41;;;-3.77;85.70
55070;BME280;40967;52.070;8.596;2023-02-28T05:03:53;102022.88;;;-3.80;85.15
55070;BME280;40967;52.070;8.596;2023-02-28T05:06:22;102031.97;;;-3.83;85.64
55070;BME280;40967;52.070;8.596;2023-02-28T05:08:49;102003.34;;;-3.98;85.47
55070;BME280;40967;52.070;8.596;2023-02-28T05:11:25;102023.72;;;-3.89;85.43
55070;BME280;40967;52.070;8.596;2023-02-28T05:13:52;102033.63;;;-3.91;85.23
55070;BME280;40967;52.070;8.596;2023-02-28T05:16:19;102043.25;;;-3.90;85.46
55070;BME280;40967;52.070;8.596;2023-02-28T05:18:45;102046.03;;;-3.92;85.50
55070;BME280;40967;52.070;8.596;2023-02-28T05:21:27;102034.03;;;-3.96;85.62
55070;BME280;40967;52.070;8.596;2023-02-28T05:23:54;102038.06;;;-4.01;85.85
55070;BME280;40967;52.070;8.596;2023-02-28T05:26:20;102048.00;;;-4.03;85.94
55070;BME280;40967;52.070;8.596;2023-02-28T05:28:46;102048.25;;;-4.06;86.34
55070;BME280;40967;52.070;8.596;2023-02-28T05:31:11;102043.22;;;-4.09;85.92
55070;BME280;40967;52.070;8.596;2023-02-28T05:33:37;102030.09;;;-4.20;85.97
55070;BME280;40967;52.070;8.596;2023-02-28T05:36:03;102041.97;;;-4.15;86.17
55070;BME280;40967;52.070;8.596;2023-02-28T05:38:31;102039.88;;;-4.21;86.29
55070;BME280;40967;52.070;8.596;2023-02-28T05:40:56;102045.03;;;-4.19;85.82
55070;BME280;40967;52.070;8.596;2023-02-28T05:43:22;102047.00;;;-4.21;85.95
55070;BME280;40967;52.070;8.596;2023-02-28T05:45:48;102047.13;;;-4.23;86.08
55070;BME280;40967;52.070;8.596;2023-02-28T05:48:13;102055.78;;;-4.21;85.67
55070;BME280;40967;52.070;8.596;2023-02-28T05:50:39;102048.94;;;-4.23;85.96
55070;BME280;40967;52.070;8.596;2023-02-28T05:53:05;102034.13;;;-4.35;85.46
55070;BME280;40967;52.070;8.596;2023-02-28T05:55:30;102051.00;;;-4.27;85.45
55070;BME280;40967;52.070;8.596;2023-02-28T05:57:56;102040.13;;;-4.33;85.53
55070;BME280;40967;52.070;8.596;2023-02-28T06:00:22;102051.56;;;-4.33;85.54
55070;BME280;40967;52.070;8.596;2023-02-28T06:02:47;102050.88;;;-4.35;85.60
55070;BME280;40967;52.070;8.596;2023-02-28T06:05:17;102053.66;;;-4.36;85.34
55070;BME280;40967;52.070;8.596;2023-02-28T06:07:43;102043.03;;;-4.46;85.45
55070;BME280;40967;52.070;8.596;2023-02-28T06:10:12;102049.59;;;-4.40;85.46
55070;BME280;40967;52.070;8.596;2023-02-28T06:12:38;102054.63;;;-4.37;85.42
55070;BME280;40967;52.070;8.596;2023-02-28T06:15:04;102047.78;;;-4.40;84.92
55070;BME280;40967;52.070;8.596;2023-02-28T06:17:30;102053.91;;;-4.39;85.49
55070;BME280;40967;52.070;8.596;2023-02-28T06:19:56;102047.94;;;-4.41;85.69
55070;BME280;40967;52.070;8.596;2023-02-28T06:22:21;102041.50;;;-4.48;85.66
55070;BME280;40967;52.070;8.596;2023-02-28T06:24:47;102041.78;;;-4.42;85.43
55070;BME280;40967;52.070;8.596;2023-02-28T06:27:12;102028.78;;;-4.54;85.51
55070;BME280;40967;52.070;8.596;2023-02-28T06:29:38;102025.84;;;-4.61;85.47
55070;BME280;40967;52.070;8.596;2023-02-28T06:32:06;102048.59;;;-4.49;85.52
55070;BME280;40967;52.070;8.596;2023-02-28T06:34:32;102055.69;;;-4.49;85.48
55070;BME280;40967;52.070;8.596;2023-02-28T06:37:00;102059.19;;;-4.49;85.58
55070;BME280;40967;52.070;8.596;2023-02-28T06:39:29;102057.66;;;-4.51;85.87
55070;BME280;40967;52.070;8.596;2023-02-28T06:41:54;102044.53;;;-4.63;85.41
55070;BME280;40967;52.070;8.596;2023-02-28T06:44:21;102064.63;;;-4.50;85.91
55070;BME280;40967;52.070;8.596;2023-02-28T06:46:49;102062.94;;;-4.51;85.66
55070;BME280;40967;52.070;8.596;2023-02-28T06:49:16;102076.94;;;-4.40;85.78
55070;BME280;40967;52.070;8.596;2023-02-28T06:51:44;102036.16;;;-4.58;86.19
55070;BME280;40967;52.070;8.596;2023-02-28T06:54:13;102087.00;;;-4.24;85.94
55070;BME280;40967;52.070;8.596;2023-02-28T06:56:39;102070.28;;;-4.25;85.94
55070;BME280;40967;52.070;8.596;2023-02-28T06:59:05;102069.28;;;-4.24;85.71
55070;BME280;40967;52.070;8.596;2023-02-28T07:01:31;102092.34;;;-4.05;85.55
55070;BME280;40967;52.070;8.596;2023-02-28T07:03:59;102086.06;;;-4.04;85.44
55070;BME280;40967;52.070;8.596;2023-02-28T07:06:25;102088.44;;;-4.01;85.84
55070;BME280;40967;52.070;8.596;2023-02-28T07:08:51;102096.56;;;-3.93;86.34
55070;BME280;40967;52.070;8.596;2023-02-28T07:11:19;102095.59;;;-3.83;85.95
55070;BME280;40967;52.070;8.596;2023-02-28T07:13:44;102096.56;;;-3.74;85.85
55070;BME280;40967;52.070;8.596;2023-02-28T07:16:13;102098.94;;;-3.71;85.47
55070;BME280;40967;52.070;8.596;2023-02-28T07:18:40;102101.59;;;-3.62;86.35
55070;BME280;40967;52.070;8.596;2023-02-28T07:21:07;102083.84;;;-3.61;86.57
55070;BME280;40967;52.070;8.596;2023-02-28T07:23:34;102108.03;;;-3.35;86.89
55070;BME280;40967;52.070;8.596;2023-02-28T07:25:59;102101.84;;;-3.17;88.15
55070;BME280;40967;52.070;8.596;2023-02-28T07:28:28;102105.84;;;-2.94;89.60
55070;BME280;40967;52.070;8.596;2023-02-28T07:30:54;102109.00;;;-2.71;90.07
55070;BME280;40967;52.070;8.596;2023-02-28T07:33:21;102110.44;;;-2.50;90.56
55070;BME280;40967;52.070;8.596;2023-02-28T07:35:47;102115.09;;;-2.24;91.23
55070;BME280;40967;52.070;8.596;2023-02-28T07:38:17;102113.09;;;-1.95;91.44
55070;BME280;40967;52.070;8.596;2023-02-28T07:40:42;102106.22;;;-1.71;91.58
55070;BME280;40967;52.070;8.596;2023-02-28T07:43:08;102117.66;;;-1.35;91.82
55070;BME280;40967;52.070;8.596;2023-02-28T07:45:33;102112.41;;;-1.09;91.23
55070;BME280;40967;52.070;8.596;2023-02-28T07:47:59;102104.22;;;-0.90;90.29
55070;BME280;40967;52.070;8.596;2023-02-28T07:50:25;102123.56;;;-0.55;89.56
55070;BME280;40967;52.070;8.596;2023-02-28T07:52:54;102106.31;;;-0.35;88.95
55070;BME280;40967;52.070;8.596;2023-02-28T07:55:19;102111.47;;;-0.08;88.57
55070;BME280;40967;52.070;8.596;2023-02-28T07:57:53;102103.69;;;0.15;87.37
55070;BME280;40967;52.070;8.596;2023-02-28T08:00:19;102102.22;;;0.45;86.75
55070;BME280;40967;52.070;8.596;2023-02-28T08:02:45;102105.25;;;0.74;86.37
55070;BME280;40967;52.070;8.596;2023-02-28T08:05:11;102106.56;;;1.02;85.97
55070;BME280;40967;52.070;8.596;2023-02-28T08:07:36;102097.00;;;1.32;84.34
55070;BME280;40967;52.070;8.596;2023-02-28T08:10:02;102085.38;;;1.55;83.97
55070;BME280;40967;52.070;8.596;2023-02-28T08:12:27;102105.28;;;1.91;81.59
55070;BME280;40967;52.070;8.596;2023-02-28T08:14:53;102107.31;;;2.20;80.76
55070;BME280;40967;52.070;8.596;2023-02-28T08:17:18;102102.81;;;2.43;79.77
55070;BME280;40967;52.070;8.596;2023-02-28T08:19:46;102080.25;;;2.60;78.60
55070;BME280;40967;52.070;8.596;2023-02-28T08:22:12;102102.34;;;2.99;78.05
55070;BME280;40967;52.070;8.596;2023-02-28T08:24:38;102091.09;;;3.18;76.88
55070;BME280;40967;52.070;8.596;2023-02-28T08:27:05;102097.22;;;3.41;76.84
55070;BME280;40967;52.070;8.596;2023-02-28T08:29:31;102083.53;;;3.66;76.14
55070;BME280;40967;52.070;8.596;2023-02-28T08:31:59;102094.28;;;3.66;75.39
55070;BME280;40967;52.070;8.596;2023-02-28T08:34:25;102075.19;;;3.46;76.87
55070;BME280;40967;52.070;8.596;2023-02-28T08:36:50;102084.44;;;3.73;75.74
55070;BME280;40967;52.070;8.596;2023-02-28T08:39:16;102091.34;;;4.11;74.33
55070;BME280;40967;52.070;8.596;2023-02-28T08:41:42;102097.00;;;4.58;72.61
55070;BME280;40967;52.070;8.596;2023-02-28T08:44:09;102081.56;;;4.88;70.11
55070;BME280;40967;52.070;8.596;2023-02-28T08:46:38;102093.25;;;5.29;68.93
55070;BME280;40967;52.070;8.596;2023-02-28T08:49:04;102075.56;;;5.47;67.85
55070;BME280;40967;52.070;8.596;2023-02-28T08:51:30;102086.66;;;5.72;66.02
55070;BME280;40967;52.070;8.596;2023-02-28T08:53:58;102088.72;;;6.04;64.68
55070;BME280;40967;52.070;8.596;2023-02-28T08:56:26;102081.09;;;6.27;64.16
55070;BME280;40967;52.070;8.596;2023-02-28T08:58:54;102090.31;;;6.59;63.27
55070;BME280;40967;52.070;8.596;2023-02-28T09:01:28;102094.91;;;6.91;63.04
55070;BME280;40967;52.070;8.596;2023-02-28T09:03:54;102095.72;;;7.18;62.55
55070;BME280;40967;52.070;8.596;2023-02-28T09:09:10;102091.91;;;7.58;60.66
55070;BME280;40967;52.070;8.596;2023-02-28T09:11:37;102097.69;;;7.81;59.63
55070;BME280;40967;52.070;8.596;2023-02-28T09:14:03;102086.81;;;7.94;58.44
55070;BME280;40967;52.070;8.596;2023-02-28T09:16:30;102085.13;;;7.99;58.06
55070;BME280;40967;52.070;8.596;2023-02-28T09:18:56;102085.13;;;8.06;56.56
55070;BME280;40967;52.070;8.596;2023-02-28T09:21:24;102085.03;;;8.19;56.28
55070;BME280;40967;52.070;8.596;2023-02-28T09:23:50;102076.06;;;8.32;56.17
55070;BME280;40967;52.070;8.596;2023-02-28T09:26:21;102078.38;;;8.59;55.36
55070;BME280;40967;52.070;8.596;2023-02-28T09:28:47;102076.63;;;8.71;54.23
55070;BME280;40967;52.070;8.596;2023-02-28T09:31:16;102086.03;;;8.93;54.14
55070;BME280;40967;52.070;8.596;2023-02-28T09:33:41;102086.53;;;9.08;52.55
55070;BME280;40967;52.070;8.596;2023-02-28T09:36:07;102084.81;;;9.14;52.49
55070;BME280;40967;52.070;8.596;2023-02-28T09:38:32;102082.38;;;9.31;52.44
55070;BME280;40967;52.070;8.596;2023-02-28T09:41:01;102084.13;;;9.43;51.77
55070;BME280;40967;52.070;8.596;2023-02-28T09:43:34;102089.53;;;9.43;50.76
55070;BME280;40967;52.070;8.596;2023-02-28T09:48:48;102088.13;;;9.59;50.11
55070;BME280;40967;52.070;8.596;2023-02-28T09:53:44;102089.47;;;9.86;49.46
55070;BME280;40967;52.070;8.596;2023-02-28T09:56:23;102078.63;;;10.04;49.37
55070;BME280;40967;52.070;8.596;2023-02-28T10:01:57;102074.50;;;10.19;48.40
55070;BME280;40967;52.070;8.596;2023-02-28T10:04:52;102062.31;;;10.10;47.39
55070;BME280;40967;52.070;8.596;2023-02-28T10:10:06;102080.69;;;10.38;46.88
55070;BME280;40967;52.070;8.596;2023-02-28T10:12:41;102077.50;;;10.41;46.50
55070;BME280;40967;52.070;8.596;2023-02-28T10:15:14;102069.22;;;10.24;45.72
55070;BME280;40967;52.070;8.596;2023-02-28T10:17:43;102073.75;;;10.12;45.29
55070;BME280;40967;52.070;8.596;2023-02-28T10:20:15;102073.22;;;10.04;44.73
55070;BME280;40967;52.070;8.596;2023-02-28T10:22:59;102073.63;;;10.01;44.64
55070;BME280;40967;52.070;8.596;2023-02-28T10:25:35;102080.44;;;9.92;44.26
55070;BME280;40967;52.070;8.596;2023-02-28T10:28:21;102079.25;;;9.88;45.06
55070;BME280;40967;52.070;8.596;2023-02-28T10:30:51;102069.00;;;9.90;44.83
55070;BME280;40967;52.070;8.596;2023-02-28T10:33:20;102059.91;;;9.84;44.81
55070;BME280;40967;52.070;8.596;2023-02-28T10:35:46;102072.94;;;9.76;44.44
55070;BME280;40967;52.070;8.596;2023-02-28T10:38:25;102075.63;;;9.76;44.56
55070;BME280;40967;52.070;8.596;2023-02-28T10:40:51;102073.97;;;9.75;44.74
55070;BME280;40967;52.070;8.596;2023-02-28T10:43:27;102073.06;;;9.63;44.58
55070;BME280;40967;52.070;8.596;2023-02-28T10:56:20;102063.03;;;9.45;43.80
55070;BME280;40967;52.070;8.596;2023-02-28T10:58:59;102061.91;;;9.53;43.67
55070;BME280;40967;52.070;8.596;2023-02-28T11:03:57;102058.69;;;9.44;43.54
55070;BME280;40967;52.070;8.596;2023-02-28T11:08:56;102043.47;;;9.25;43.57
55070;BME280;40967;52.070;8.596;2023-02-28T11:11:25;102048.44;;;9.28;44.17
55070;BME280;40967;52.070;8.596;2023-02-28T11:13:57;102051.97;;;9.29;43.74
55070;BME280;40967;52.070;8.596;2023-02-28T11:16:35;102054.59;;;9.35;43.93
55070;BME280;40967;52.070;8.596;2023-02-28T11:19:04;102048.53;;;9.40;43.46
55070;BME280;40967;52.070;8.596;2023-02-28T11:21:36;102038.72;;;9.39;43.53
55070;BME280;40967;52.070;8.596;2023-02-28T11:26:46;102050.78;;;9.43;42.87
55070;BME280;40967;52.070;8.596;2023-02-28T11:29:23;102049.94;;;9.42;42.53
55070;BME280;40967;52.070;8.596;2023-02-28T11:32:03;102043.50;;;9.43;42.62
55070;BME280;40967;52.070;8.596;2023-02-28T11:34:29;102048.31;;;9.41;42.23
55070;BME280;40967;52.070;8.596;2023-02-28T11:36:57;102041.59;;;9.44;42.01
55070;BME280;40967;52.070;8.596;2023-02-28T11:39:25;102035.41;;;9.37;41.76
55070;BME280;40967;52.070;8.596;2023-02-28T12:02:55;102014.44;;;9.32;41.14
55070;BME280;40967;52.070;8.596;2023-02-28T12:07:50;102014.97;;;9.41;41.39
55070;BME280;40967;52.070;8.596;2023-02-28T12:10:22;102008.19;;;9.50;41.48
55070;BME280;40967;52.070;8.596;2023-02-28T12:15:55;101988.47;;;9.43;41.26
55070;BME280;40967;52.070;8.596;2023-02-28T12:26:55;101995.09;;;9.47;42.02
55070;BME280;40967;52.070;8.596;2023-02-28T12:34:52;101989.06;;;9.27;41.80
55070;BME280;40967;52.070;8.596;2023-02-28T12:37:38;101991.94;;;9.13;41.99
55070;BME280;40967;52.070;8.596;2023-02-28T12:40:21;101988.47;;;9.06;42.36
55070;BME280;40967;52.070;8.596;2023-02-28T12:45:57;101959.34;;;8.84;42.19
55070;BME280;40967;52.070;8.596;2023-02-28T12:48:42;101976.09;;;8.92;42.65
55070;BME280;40967;52.070;8.596;2023-02-28T12:51:09;101975.13;;;8.87;42.46
55070;BME280;40967;52.070;8.596;2023-02-28T12:53:54;101974.50;;;8.85;42.27
55070;BME280;40967;52.070;8.596;2023-02-28T12:56:35;101962.84;;;8.84;42.35
55070;BME280;40967;52.070;8.596;2023-02-28T12:59:12;101963.38;;;8.75;42.76
55070;BME280;40967;52.070;8.596;2023-02-28T13:07:23;101961.16;;;8.65;42.25
55070;BME280;40967;52.070;8.596;2023-02-28T13:09:59;101945.59;;;8.61;42.29
55070;BME280;40967;52.070;8.596;2023-02-28T13:12:27;101940.88;;;8.56;42.57
55070;BME280;40967;52.070;8.596;2023-02-28T13:15:21;101945.44;;;8.56;42.40
55070;BME280;40967;52.070;8.596;2023-02-28T13:17:52;101950.84;;;8.56;42.23
55070;BME280;40967;52.070;8.596;2023-02-28T13:20:47;101936.78;;;8.47;42.74
55070;BME280;40967;52.070;8.596;2023-02-28T13:23:56;101952.94;;;8.54;42.87
55070;BME280;40967;52.070;8.596;2023-02-28T13:27:12;101946.22;;;8.63;43.46
55070;BME280;40967;52.070;8.596;2023-02-28T13:29:50;101958.91;;;8.62;42.50
55070;BME280;40967;52.070;8.596;2023-02-28T13:42:35;101938.53;;;8.35;42.59
55070;BME280;40967;52.070;8.596;2023-02-28T13:47:49;101946.09;;;8.27;43.20
55070;BME280;40967;52.070;8.596;2023-02-28T14:06:52;101934.22;;;8.28;45.24
55070;BME280;40967;52.070;8.596;2023-02-28T14:09:25;101932.53;;;8.33;45.23
55070;BME280;40967;52.070;8.596;2023-02-28T14:11:52;101914.28;;;8.29;44.49
55070;BME280;40967;52.070;8.596;2023-02-28T14:17:03;101928.34;;;8.37;45.09
55070;BME280;40967;52.070;8.596;2023-02-28T14:19:30;101918.88;;;8.46;45.17
55070;BME280;40967;52.070;8.596;2023-02-28T14:32:48;101916.50;;;8.56;45.40
55070;BME280;40967;52.070;8.596;2023-02-28T14:38:05;101910.28;;;8.56;45.02
55070;BME280;40967;52.070;8.596;2023-02-28T14:40:33;101900.06;;;8.58;45.12
55070;BME280;40967;52.070;8.596;2023-02-28T14:43:05;101888.09;;;8.47;44.83
55070;BME280;40967;52.070;8.596;2023-02-28T14:45:58;101884.38;;;8.42;45.42
55070;BME280;40967;52.070;8.596;2023-02-28T14:48:27;101874.75;;;8.28;45.67
55070;BME280;40967;52.070;8.596;2023-02-28T14:50:57;101904.81;;;8.38;45.30
55070;BME280;40967;52.070;8.596;2023-02-28T14:53:36;101904.72;;;8.26;45.41
55070;BME280;40967;52.070;8.596;2023-02-28T14:56:03;101897.94;;;8.11;45.37
55070;BME280;40967;52.070;8.596;2023-02-28T14:58:33;101901.72;;;8.03;46.01
55070;BME280;40967;52.070;8.596;2023-02-28T15:01:01;101908.44;;;7.94;46.22
55070;BME280;40967;52.070;8.596;2023-02-28T15:03:37;101921.19;;;7.87;46.12
55070;BME280;40967;52.070;8.596;2023-02-28T15:06:18;101912.72;;;7.77;46.94
55070;BME280;40967;52.070;8.596;2023-02-28T15:08:44;101905.31;;;7.66;47.03
55070;BME280;40967;52.070;8.596;2023-02-28T15:11:16;101918.44;;;7.62;46.99
55070;BME280;40967;52.070;8.596;2023-02-28T15:13:52;101916.19;;;7.53;47.26
55070;BME280;40967;52.070;8.596;2023-02-28T15:16:22;101919.56;;;7.42;47.31
55070;BME280;40967;52.070;8.596;2023-02-28T15:21:48;101915.31;;;7.15;48.45
55070;BME280;40967;52.070;8.596;2023-02-28T15:24:38;101916.00;;;7.04;47.93
55070;BME280;40967;52.070;8.596;2023-02-28T15:27:09;101912.88;;;6.93;48.86
55070;BME280;40967;52.070;8.596;2023-02-28T15:29:46;101905.84;;;6.79;48.61
55070;BME280;40967;52.070;8.596;2023-02-28T15:34:53;101911.72;;;6.63;49.56
55070;BME280;40967;52.070;8.596;2023-02-28T15:37:45;101921.03;;;6.61;50.26
55070;BME280;40967;52.070;8.596;2023-02-28T15:40:30;101925.00;;;6.58;50.28
55070;BME280;40967;52.070;8.596;2023-02-28T15:43:06;101921.69;;;6.56;49.97
55070;BME280;40967;52.070;8.596;2023-02-28T15:45:39;101924.19;;;6.51;49.91
55070;BME280;40967;52.070;8.596;2023-02-28T15:50:43;101922.72;;;6.49;50.10
55070;BME280;40967;52.070;8.596;2023-02-28T15:53:22;101925.00;;;6.45;49.70
55070;BME280;40967;52.070;8.596;2023-02-28T15:55:55;101921.47;;;6.38;49.46
55070;BME280;40967;52.070;8.596;2023-02-28T15:58:21;101935.16;;;6.37;49.80